createdAt,value
2022-12-23T00:04:40.801Z,1.2173913043478262
2022-12-23T00:11:00.480Z,1.0969899665551839
2022-12-23T00:17:23.322Z,1.2374581939799332
2022-12-23T00:29:21.120Z,0.7625418060200669
2022-12-23T00:35:40.708Z,1.745819397993311
2022-12-23T00:41:59.883Z,1.1906354515050168
2022-12-23T00:48:56.812Z,1.645484949832776
2022-12-23T01:00:13.180Z,1.5418060200668897
2022-12-23T01:06:33.106Z,1.9632107023411371
2022-12-23T01:12:52.875Z,1.4882943143812708
2022-12-23T01:20:34.565Z,2.0836120401337794
2022-12-23T01:26:53.796Z,1.7491638795986622
2022-12-23T01:33:14.217Z,1.1103678929765886
2022-12-23T01:43:55.663Z,1.8193979933110367
2022-12-23T01:56:23.747Z,1.0769230769230769
2022-12-23T02:08:54.960Z,1.8193979933110367
2022-12-23T02:26:21.403Z,1.431438127090301
2022-12-23T02:32:41.076Z,1.214046822742475
2022-12-23T02:42:59.728Z,1.608695652173913
2022-12-23T02:50:33.303Z,1.6120401337792643
2022-12-23T02:56:56.319Z,1.1103678929765886
2022-12-23T03:03:16.751Z,1.1973244147157192
2022-12-23T03:09:36.910Z,1.0969899665551839
2022-12-23T03:19:43.450Z,1.1103678929765886
2022-12-23T03:26:03.387Z,1.839464882943144
2022-12-23T03:33:42.479Z,0.9297658862876255
2022-12-23T03:40:01.664Z,1.4849498327759196
2022-12-23T03:46:23.287Z,1.5250836120401339
2022-12-23T03:58:55.619Z,0.9565217391304348
2022-12-23T04:05:15.566Z,1.0568561872909699
2022-12-23T04:14:17.726Z,0.9498327759197325
2022-12-23T04:20:37.334Z,1.120401337792642
2022-12-23T04:26:56.395Z,1.060200668896321
2022-12-23T04:33:39.934Z,1.6989966555183946
2022-12-23T04:40:00.226Z,1.9297658862876255
2022-12-23T04:52:18.512Z,1.7826086956521738
2022-12-23T04:58:37.797Z,2.1638795986622075
2022-12-23T05:04:58.618Z,1.6889632107023411
2022-12-23T05:14:14.452Z,1.9030100334448161
2022-12-23T05:22:08.039Z,2.0903010033444818
2022-12-23T05:28:28.202Z,2.160535117056856
2022-12-23T05:36:16.326Z,2.4013377926421406
2022-12-23T05:42:37.963Z,2.4247491638795986
2022-12-23T05:56:29.175Z,2.8762541806020065
2022-12-23T06:02:53.828Z,2.3344481605351173
2022-12-23T06:09:19.936Z,3.0133779264214047
2022-12-23T06:20:01.868Z,2.0903010033444818
2022-12-23T06:27:28.825Z,1.9765886287625418
2022-12-23T06:33:48.538Z,3.254180602006689
2022-12-23T06:41:57.259Z,3.17056856187291
2022-12-23T06:50:26.845Z,3.1471571906354514
2022-12-23T06:56:46.217Z,3.4749163879598663
2022-12-23T07:05:45.163Z,2.7759197324414715
2022-12-23T07:13:32.135Z,2.351170568561873
2022-12-23T07:21:31.580Z,2.240802675585284
2022-12-23T07:27:51.301Z,2.719063545150502
2022-12-23T07:34:55.887Z,2.4749163879598663
2022-12-23T07:41:16.078Z,2.722408026755853
2022-12-23T07:47:35.813Z,2.9899665551839463
2022-12-23T07:53:59.557Z,2.2140468227424748
2022-12-23T08:07:30.711Z,2.0066889632107023
2022-12-23T08:13:54.893Z,2.9866220735785953
2022-12-23T08:20:33.567Z,2.05685618729097
2022-12-23T08:26:56.667Z,2.448160535117057
2022-12-23T08:39:42.431Z,3.0334448160535117
2022-12-23T08:46:05.166Z,2.4347826086956523
2022-12-23T08:53:47.091Z,2.2441471571906355
2022-12-23T09:01:53.455Z,2.3612040133779266
2022-12-23T09:08:15.824Z,2.7558528428093645
2022-12-23T09:15:51.184Z,1.9464882943143813
2022-12-23T09:31:36.798Z,2.387959866220736
2022-12-23T09:38:00.726Z,2.020066889632107
2022-12-23T09:48:39.318Z,2.230769230769231
2022-12-23T09:56:23.262Z,2.157190635451505
2022-12-23T10:04:04.019Z,2.2474916387959865
2022-12-23T10:10:29.636Z,2.5050167224080266
2022-12-23T10:16:54.019Z,1.9531772575250836
2022-12-23T10:23:18.519Z,1.117056856187291
2022-12-23T10:29:39.782Z,1.8461538461538463
2022-12-23T10:41:38.513Z,1.839464882943144
2022-12-23T10:48:00.208Z,3.5016722408026757
2022-12-23T11:01:27.596Z,2.4816053511705687
2022-12-23T11:07:49.837Z,2.4849498327759196
2022-12-23T11:18:56.858Z,3.451505016722408
2022-12-23T11:27:36.577Z,2.0702341137123748
2022-12-23T11:33:59.429Z,3.7324414715719065
2022-12-23T11:46:57.108Z,4.036789297658863
2022-12-23T12:01:16.139Z,2.769230769230769
2022-12-23T12:07:47.056Z,3.5451505016722407
2022-12-23T12:26:16.322Z,2.9364548494983276
2022-12-23T12:32:40.144Z,2.6053511705685617
2022-12-23T12:44:59.185Z,2.491638795986622
2022-12-23T12:51:23.880Z,2.5016722408026757
2022-12-23T12:57:46.551Z,2.331103678929766
2022-12-23T13:09:55.668Z,1.9063545150501673
2022-12-23T13:16:20.087Z,1.882943143812709
2022-12-23T13:22:44.284Z,2.036789297658863
2022-12-23T13:29:35.006Z,1.7826086956521738
2022-12-23T13:38:33.996Z,1.8461538461538463
2022-12-23T13:44:56.783Z,1.3311036789297659
2022-12-23T13:51:19.498Z,1.842809364548495
2022-12-23T13:57:46.216Z,2.180602006688963
2022-12-23T14:09:48.827Z,1.3277591973244147
2022-12-23T14:20:59.460Z,1.0769230769230769
2022-12-23T14:27:29.315Z,1.8561872909698998
2022-12-23T14:39:59.007Z,1.0568561872909699
2022-12-23T14:49:38.501Z,1.5785953177257526
2022-12-23T15:10:54.017Z,1.351170568561873
2022-12-23T15:19:50.720Z,1.508361204013378
2022-12-23T15:26:11.933Z,1.8227424749163879
2022-12-23T15:32:32.497Z,1.1103678929765886
2022-12-23T15:38:52.549Z,1.0702341137123745
2022-12-23T15:45:20.260Z,1.3779264214046822
2022-12-23T15:52:09.469Z,1.3645484949832776
2022-12-23T15:58:32.813Z,1.3645484949832776
2022-12-23T16:04:54.639Z,1.785953177257525
2022-12-23T16:11:20.300Z,1.157190635451505
2022-12-23T16:20:40.119Z,1.3879598662207357
2022-12-23T16:27:00.680Z,1.862876254180602
2022-12-23T16:33:22.618Z,1.4448160535117056
2022-12-23T16:39:44.280Z,2.1839464882943145
2022-12-23T16:56:09.135Z,1.3110367892976589
2022-12-23T17:06:47.606Z,1.6722408026755853
2022-12-23T17:13:07.473Z,1.859531772575251
2022-12-23T17:19:29.424Z,1.4849498327759196
2022-12-23T17:25:48.813Z,1.4448160535117056
2022-12-23T17:32:10.567Z,2.0869565217391304
2022-12-23T17:38:30.092Z,1.0769230769230769
2022-12-23T17:44:51.081Z,1.1906354515050168
2022-12-23T18:06:05.592Z,1.7625418060200668
2022-12-23T18:24:19.165Z,1.2909698996655519
2022-12-23T18:30:39.743Z,1.9364548494983278
2022-12-23T18:37:57.672Z,1.7157190635451505
2022-12-23T18:47:06.725Z,0.9832775919732442
2022-12-23T18:53:28.432Z,1.3110367892976589
2022-12-23T18:59:49.833Z,1.4849498327759196
2022-12-23T19:11:10.876Z,1.0167224080267558
2022-12-23T19:17:31.679Z,1.1973244147157192
2022-12-23T19:23:51.614Z,1.4481605351170568
2022-12-23T19:43:07.607Z,1.3846153846153846
2022-12-23T19:49:27.626Z,1.1672240802675586
2022-12-23T19:55:47.868Z,1.3277591973244147
2022-12-23T20:04:42.184Z,1.0367892976588629
2022-12-23T20:14:45.333Z,1.4983277591973243
2022-12-23T20:21:14.872Z,0.8361204013377926
2022-12-23T20:27:41.127Z,0.7424749163879598
2022-12-23T20:39:48.022Z,0.6822742474916388
2022-12-23T20:46:11.681Z,0.862876254180602
2022-12-23T20:52:32.215Z,0.7023411371237458
2022-12-23T20:58:52.720Z,0.939799331103679
2022-12-23T21:12:32.423Z,0.34782608695652173
2022-12-23T21:18:54.864Z,0.7157190635451505
2022-12-23T21:25:30.355Z,0.5819397993311036
2022-12-23T21:31:59.262Z,0.782608695652174
2022-12-23T21:42:35.548Z,0.38127090301003347
2022-12-23T21:49:10.716Z,0.33444816053511706
2022-12-23T21:57:52.385Z,0.7357859531772575
2022-12-23T22:04:34.939Z,0.4414715719063545
2022-12-23T22:11:13.005Z,0.38127090301003347
2022-12-23T22:18:39.984Z,0.33444816053511706
2022-12-23T22:25:48.784Z,0.7692307692307693
2022-12-23T22:32:15.952Z,0.862876254180602
2022-12-23T22:38:37.413Z,1.1103678929765886
2022-12-23T22:44:57.952Z,0.842809364548495
2022-12-23T22:51:18.123Z,0.6421404682274248
2022-12-23T22:57:37.568Z,0.5551839464882943
2022-12-23T23:03:57.610Z,0.14715719063545152
2022-12-23T23:14:18.317Z,0.5484949832775919
2022-12-23T23:27:40.499Z,0.3210702341137124
2022-12-23T23:34:00.603Z,0.2140468227424749
2022-12-23T23:55:46.918Z,0.26755852842809363
